VIV5214 MMHO-MMMX
Flight info
| Callsign | VIV5214 |
|---|---|
| Flight time | 2h 5m |
| Altitude | 39000 |
| Route | SEBEK1B SEBEK UJ7 CEN UT49 DGO UJ63 AGU UT129 DARAN DARAN3A |
| Aircraft | A20N/M-SDE2E3FGHIJ1RWXY/LB1 |
Departure
| Time | 2026-05-06 03:43 |
|---|---|
| Airport | General Ignacio L. Pesqueira International Airport (MMHO) |
Arrival
| Time | 2026-05-06 05:48 |
|---|---|
| Airport | Mexico City Benito Juárez International Airport (MMMX) |
| Time | Latitude | Longitude | Altitude | Speed | Heading |
|---|---|---|---|---|---|
| 2026-05-06 03:16 | 29.09068 | -111.05231 | 643 ft | 0 kts | 148° |
| 2026-05-06 03:24 | 29.09071 | -111.05233 | 643 ft | 3 kts | 149° |
| 2026-05-06 03:24 | 29.09094 | -111.05249 | 645 ft | 4 kts | 149° |
| 2026-05-06 03:25 | 29.09112 | -111.05262 | 644 ft | 4 kts | 130° |
| 2026-05-06 03:25 | 29.09119 | -111.05286 | 644 ft | 4 kts | 64° |
| 2026-05-06 03:25 | 29.09106 | -111.05311 | 644 ft | 4 kts | 59° |
| 2026-05-06 03:25 | 29.09102 | -111.05320 | 643 ft | 0 kts | 59° |
| 2026-05-06 03:31 | 29.09102 | -111.05319 | 643 ft | 1 kts | 59° |
| 2026-05-06 03:31 | 29.09108 | -111.05308 | 643 ft | 3 kts | 59° |
| 2026-05-06 03:31 | 29.09120 | -111.05284 | 642 ft | 4 kts | 59° |
| 2026-05-06 03:32 | 29.09140 | -111.05249 | 644 ft | 6 kts | 60° |
| 2026-05-06 03:32 | 29.09165 | -111.05202 | 643 ft | 8 kts | 59° |
| 2026-05-06 03:32 | 29.09195 | -111.05146 | 643 ft | 9 kts | 58° |
| 2026-05-06 03:32 | 29.09230 | -111.05078 | 643 ft | 11 kts | 59° |
| 2026-05-06 03:33 | 29.09271 | -111.05003 | 643 ft | 12 kts | 59° |
| 2026-05-06 03:33 | 29.09317 | -111.04916 | 644 ft | 14 kts | 58° |
| 2026-05-06 03:33 | 29.09367 | -111.04818 | 646 ft | 15 kts | 68° |
| 2026-05-06 03:33 | 29.09367 | -111.04693 | 645 ft | 17 kts | 94° |
| 2026-05-06 03:34 | 29.09418 | -111.04583 | 645 ft | 17 kts | 42° |
| 2026-05-06 03:34 | 29.09490 | -111.04473 | 646 ft | 18 kts | 53° |
| 2026-05-06 03:34 | 29.09566 | -111.04352 | 647 ft | 19 kts | 54° |
| 2026-05-06 03:34 | 29.09648 | -111.04220 | 647 ft | 21 kts | 55° |
| 2026-05-06 03:35 | 29.09763 | -111.04179 | 648 ft | 20 kts | 330° |
| 2026-05-06 03:35 | 29.09847 | -111.04243 | 647 ft | 15 kts | 304° |
| 2026-05-06 03:35 | 29.09830 | -111.04317 | 645 ft | 0 kts | 239° |
| 2026-05-06 03:42 | 29.09829 | -111.04320 | 645 ft | 2 kts | 239° |
| 2026-05-06 03:42 | 29.09757 | -111.04452 | 644 ft | 51 kts | 238° |
| 2026-05-06 03:42 | 29.09456 | -111.05021 | 639 ft | 113 kts | 238° |
| 2026-05-06 03:42 | 29.08971 | -111.05938 | 661 ft | 156 kts | 237° |
| 2026-05-06 03:43 | 29.08419 | -111.06972 | 1317 ft | 151 kts | 239° |
| 2026-05-06 03:43 | 29.07872 | -111.07998 | 1959 ft | 154 kts | 242° |
| 2026-05-06 03:43 | 29.07284 | -111.09108 | 2303 ft | 174 kts | 243° |
| 2026-05-06 03:43 | 29.06617 | -111.10370 | 2578 ft | 197 kts | 242° |
| 2026-05-06 03:44 | 29.05865 | -111.11789 | 2868 ft | 221 kts | 241° |
| 2026-05-06 03:44 | 29.05022 | -111.13379 | 3291 ft | 246 kts | 241° |
| 2026-05-06 03:44 | 29.04145 | -111.14988 | 3935 ft | 258 kts | 236° |
| 2026-05-06 03:44 | 29.02876 | -111.16469 | 4862 ft | 264 kts | 218° |
| 2026-05-06 03:45 | 29.01271 | -111.17501 | 5834 ft | 267 kts | 202° |
| 2026-05-06 03:45 | 28.99463 | -111.18013 | 6785 ft | 270 kts | 188° |
| 2026-05-06 03:45 | 28.97589 | -111.17940 | 7659 ft | 277 kts | 173° |
| 2026-05-06 03:45 | 28.95732 | -111.17240 | 8510 ft | 287 kts | 157° |
| 2026-05-06 03:46 | 28.94063 | -111.15914 | 9347 ft | 297 kts | 145° |
| 2026-05-06 03:46 | 28.92464 | -111.14390 | 10137 ft | 302 kts | 145° |
| 2026-05-06 03:46 | 28.90839 | -111.12833 | 10904 ft | 306 kts | 146° |
| 2026-05-06 03:46 | 28.89211 | -111.11270 | 11500 ft | 317 kts | 146° |
| 2026-05-06 03:47 | 28.87450 | -111.09593 | 11708 ft | 340 kts | 146° |
| 2026-05-06 03:47 | 28.85566 | -111.07808 | 11894 ft | 362 kts | 145° |
| 2026-05-06 03:47 | 28.83601 | -111.05939 | 12406 ft | 371 kts | 145° |
| 2026-05-06 03:47 | 28.81604 | -111.04032 | 13062 ft | 376 kts | 145° |
| 2026-05-06 03:48 | 28.79582 | -111.02101 | 13742 ft | 380 kts | 146° |
| 2026-05-06 03:48 | 28.77567 | -111.00179 | 14342 ft | 383 kts | 146° |
| 2026-05-06 03:48 | 28.75509 | -110.98217 | 14918 ft | 387 kts | 146° |
| 2026-05-06 03:48 | 28.73432 | -110.96241 | 15491 ft | 391 kts | 146° |
| 2026-05-06 03:49 | 28.71326 | -110.94245 | 16056 ft | 394 kts | 147° |
| 2026-05-06 03:49 | 28.69204 | -110.92236 | 16630 ft | 398 kts | 147° |
| 2026-05-06 03:49 | 28.67065 | -110.90210 | 17214 ft | 402 kts | 147° |
| 2026-05-06 03:49 | 28.64906 | -110.88162 | 17812 ft | 406 kts | 147° |
| 2026-05-06 03:50 | 28.62753 | -110.86123 | 18380 ft | 409 kts | 147° |
| 2026-05-06 03:50 | 28.60554 | -110.84041 | 18920 ft | 412 kts | 148° |
| 2026-05-06 03:50 | 28.58333 | -110.81940 | 19453 ft | 416 kts | 148° |
| 2026-05-06 03:50 | 28.56100 | -110.79827 | 19994 ft | 419 kts | 148° |
| 2026-05-06 03:51 | 28.53844 | -110.77694 | 20547 ft | 421 kts | 148° |
| 2026-05-06 03:51 | 28.51580 | -110.75556 | 21047 ft | 424 kts | 149° |
| 2026-05-06 03:51 | 28.49325 | -110.73429 | 21516 ft | 427 kts | 149° |
| 2026-05-06 03:51 | 28.47032 | -110.71271 | 22007 ft | 430 kts | 149° |
| 2026-05-06 03:52 | 28.44714 | -110.69094 | 22485 ft | 432 kts | 149° |
| 2026-05-06 03:52 | 28.42386 | -110.66904 | 22951 ft | 435 kts | 149° |
| 2026-05-06 03:52 | 28.40044 | -110.64696 | 23415 ft | 438 kts | 149° |
| 2026-05-06 03:52 | 28.37723 | -110.62507 | 23812 ft | 440 kts | 150° |
| 2026-05-06 03:53 | 28.35363 | -110.60281 | 24206 ft | 442 kts | 150° |
| 2026-05-06 03:53 | 28.32993 | -110.58046 | 24611 ft | 443 kts | 150° |
| 2026-05-06 03:53 | 28.30610 | -110.55803 | 25003 ft | 445 kts | 150° |
| 2026-05-06 03:53 | 28.28218 | -110.53555 | 25408 ft | 446 kts | 150° |
| 2026-05-06 03:54 | 28.25849 | -110.51333 | 25798 ft | 448 kts | 150° |
| 2026-05-06 03:54 | 28.23442 | -110.49078 | 26206 ft | 449 kts | 150° |
| 2026-05-06 03:54 | 28.21024 | -110.46815 | 26631 ft | 450 kts | 150° |
| 2026-05-06 03:54 | 28.18605 | -110.44552 | 27032 ft | 452 kts | 151° |
| 2026-05-06 03:55 | 28.16172 | -110.42277 | 27395 ft | 454 kts | 151° |
| 2026-05-06 03:55 | 28.13728 | -110.39993 | 27762 ft | 456 kts | 151° |
| 2026-05-06 03:55 | 28.11270 | -110.37694 | 28154 ft | 458 kts | 151° |
| 2026-05-06 03:55 | 28.08840 | -110.35420 | 28563 ft | 459 kts | 151° |
| 2026-05-06 03:56 | 28.06382 | -110.33115 | 29127 ft | 457 kts | 151° |
| 2026-05-06 03:56 | 28.03935 | -110.30823 | 29770 ft | 455 kts | 152° |
| 2026-05-06 03:56 | 28.01501 | -110.28550 | 30300 ft | 452 kts | 152° |
| 2026-05-06 03:56 | 27.99071 | -110.26286 | 30730 ft | 452 kts | 153° |
| 2026-05-06 03:57 | 27.96623 | -110.24073 | 31122 ft | 446 kts | 157° |
| 2026-05-06 03:57 | 27.94046 | -110.22182 | 31494 ft | 440 kts | 160° |
| 2026-05-06 03:57 | 27.91451 | -110.20341 | 31897 ft | 440 kts | 160° |
| 2026-05-06 03:57 | 27.88885 | -110.18525 | 32298 ft | 440 kts | 161° |
| 2026-05-06 03:58 | 27.86285 | -110.16689 | 32707 ft | 440 kts | 161° |
| 2026-05-06 03:58 | 27.83687 | -110.14855 | 33122 ft | 440 kts | 161° |
| 2026-05-06 03:58 | 27.81090 | -110.13021 | 33523 ft | 440 kts | 161° |
| 2026-05-06 03:58 | 27.78495 | -110.11185 | 33943 ft | 440 kts | 162° |
| 2026-05-06 03:59 | 27.75896 | -110.09347 | 34307 ft | 440 kts | 161° |
| 2026-05-06 03:59 | 27.73298 | -110.07509 | 34674 ft | 439 kts | 162° |
| 2026-05-06 03:59 | 27.70739 | -110.05700 | 35049 ft | 438 kts | 162° |
| 2026-05-06 03:59 | 27.68158 | -110.03879 | 35437 ft | 436 kts | 162° |
| 2026-05-06 04:00 | 27.65584 | -110.02065 | 35810 ft | 434 kts | 162° |
| 2026-05-06 04:00 | 27.63023 | -110.00258 | 36179 ft | 433 kts | 162° |
| 2026-05-06 04:00 | 27.60468 | -109.98458 | 36548 ft | 431 kts | 162° |
| 2026-05-06 04:00 | 27.57925 | -109.96667 | 36907 ft | 429 kts | 162° |
| 2026-05-06 04:01 | 27.55429 | -109.94913 | 37253 ft | 428 kts | 162° |
| 2026-05-06 04:01 | 27.52905 | -109.93143 | 37602 ft | 426 kts | 162° |
| 2026-05-06 04:01 | 27.50392 | -109.91382 | 37946 ft | 424 kts | 162° |
| 2026-05-06 04:01 | 27.47886 | -109.89625 | 38277 ft | 423 kts | 162° |
| 2026-05-06 04:02 | 27.45386 | -109.87870 | 38604 ft | 421 kts | 162° |
| 2026-05-06 04:02 | 27.42899 | -109.86116 | 38850 ft | 423 kts | 160° |
| 2026-05-06 04:02 | 27.40562 | -109.84048 | 38934 ft | 443 kts | 149° |
| 2026-05-06 04:02 | 27.38473 | -109.81381 | 38960 ft | 466 kts | 137° |
| 2026-05-06 04:03 | 27.36787 | -109.78181 | 38957 ft | 481 kts | 130° |
| 2026-05-06 04:03 | 27.35206 | -109.74848 | 38955 ft | 482 kts | 130° |
| 2026-05-06 04:03 | 27.32086 | -109.68207 | 38961 ft | 483 kts | 130° |
| 2026-05-06 04:04 | 27.28941 | -109.61532 | 38959 ft | 482 kts | 130° |
| 2026-05-06 04:04 | 27.25777 | -109.54883 | 38958 ft | 482 kts | 130° |
| 2026-05-06 04:05 | 27.22596 | -109.48242 | 38960 ft | 482 kts | 130° |
| 2026-05-06 04:05 | 27.19435 | -109.41642 | 38958 ft | 482 kts | 130° |
| 2026-05-06 04:06 | 27.16254 | -109.34990 | 38959 ft | 483 kts | 130° |
| 2026-05-06 04:06 | 27.13065 | -109.28341 | 38963 ft | 483 kts | 130° |
| 2026-05-06 04:07 | 27.09871 | -109.21705 | 38972 ft | 483 kts | 130° |
| 2026-05-06 04:07 | 27.06696 | -109.15115 | 38964 ft | 483 kts | 130° |
| 2026-05-06 04:08 | 27.03498 | -109.08481 | 38969 ft | 483 kts | 129° |
| 2026-05-06 04:08 | 27.00302 | -109.01856 | 38968 ft | 483 kts | 129° |
| 2026-05-06 04:09 | 26.97100 | -108.95235 | 38969 ft | 482 kts | 129° |
| 2026-05-06 04:09 | 26.93913 | -108.88661 | 38972 ft | 483 kts | 129° |
| 2026-05-06 04:10 | 26.90701 | -108.82043 | 38974 ft | 483 kts | 129° |
| 2026-05-06 04:10 | 26.87494 | -108.75417 | 38972 ft | 482 kts | 129° |
| 2026-05-06 04:11 | 26.84303 | -108.68861 | 38974 ft | 482 kts | 129° |
| 2026-05-06 04:11 | 26.81083 | -108.62262 | 38969 ft | 483 kts | 128° |
| 2026-05-06 04:12 | 26.78410 | -108.56777 | 38969 ft | 481 kts | 129° |
| 2026-05-06 04:12 | 26.75193 | -108.50198 | 38950 ft | 481 kts | 128° |
| 2026-05-06 04:13 | 26.71997 | -108.43669 | 38964 ft | 481 kts | 128° |
| 2026-05-06 04:13 | 26.68777 | -108.37101 | 38968 ft | 481 kts | 128° |
| 2026-05-06 04:14 | 26.65548 | -108.30521 | 38972 ft | 481 kts | 128° |
| 2026-05-06 04:14 | 26.62342 | -108.23993 | 38983 ft | 482 kts | 128° |
| 2026-05-06 04:15 | 26.59106 | -108.17441 | 38986 ft | 480 kts | 130° |
| 2026-05-06 04:15 | 26.55358 | -108.11396 | 38994 ft | 472 kts | 135° |
| 2026-05-06 04:16 | 26.51533 | -108.05440 | 39002 ft | 472 kts | 135° |
| 2026-05-06 04:16 | 26.47691 | -107.99464 | 39000 ft | 472 kts | 135° |
| 2026-05-06 04:17 | 26.43880 | -107.93536 | 38994 ft | 473 kts | 135° |
| 2026-05-06 04:17 | 26.40030 | -107.87540 | 38996 ft | 475 kts | 135° |
| 2026-05-06 04:18 | 26.36157 | -107.81543 | 38998 ft | 476 kts | 135° |
| 2026-05-06 04:18 | 26.32284 | -107.75544 | 38986 ft | 477 kts | 135° |
| 2026-05-06 04:19 | 26.28401 | -107.69523 | 39007 ft | 479 kts | 134° |
| 2026-05-06 04:19 | 26.24526 | -107.63521 | 39009 ft | 479 kts | 134° |
| 2026-05-06 04:20 | 26.20619 | -107.57497 | 39016 ft | 480 kts | 134° |
| 2026-05-06 04:20 | 26.16726 | -107.51489 | 39030 ft | 480 kts | 134° |
| 2026-05-06 04:21 | 26.12813 | -107.45452 | 39035 ft | 480 kts | 134° |
| 2026-05-06 04:21 | 26.08891 | -107.39428 | 39040 ft | 480 kts | 134° |
| 2026-05-06 04:22 | 26.04966 | -107.33415 | 39043 ft | 480 kts | 134° |
| 2026-05-06 04:23 | 25.99114 | -107.24422 | 39043 ft | 478 kts | 134° |
| 2026-05-06 04:23 | 25.95205 | -107.18428 | 39067 ft | 479 kts | 134° |
| 2026-05-06 04:24 | 25.91296 | -107.12465 | 39057 ft | 479 kts | 134° |
| 2026-05-06 04:24 | 25.87368 | -107.06480 | 39075 ft | 479 kts | 134° |
| 2026-05-06 04:25 | 25.83447 | -107.00477 | 39082 ft | 480 kts | 133° |
| 2026-05-06 04:25 | 25.79563 | -106.94512 | 39089 ft | 479 kts | 133° |
| 2026-05-06 04:26 | 25.75653 | -106.88527 | 39086 ft | 479 kts | 133° |
| 2026-05-06 04:26 | 25.71731 | -106.82542 | 39087 ft | 478 kts | 133° |
| 2026-05-06 04:27 | 25.67835 | -106.76605 | 39090 ft | 479 kts | 133° |
| 2026-05-06 04:27 | 25.63893 | -106.70599 | 39081 ft | 478 kts | 133° |
| 2026-05-06 04:28 | 25.59987 | -106.64667 | 39083 ft | 479 kts | 133° |
| 2026-05-06 04:28 | 25.56056 | -106.58697 | 39081 ft | 479 kts | 133° |
| 2026-05-06 04:29 | 25.52129 | -106.52730 | 39075 ft | 479 kts | 133° |
| 2026-05-06 04:29 | 25.48214 | -106.46798 | 39075 ft | 480 kts | 133° |
| 2026-05-06 04:30 | 25.44271 | -106.40829 | 39075 ft | 480 kts | 132° |
| 2026-05-06 04:30 | 25.40320 | -106.34877 | 39078 ft | 479 kts | 133° |
| 2026-05-06 04:31 | 25.36315 | -106.28970 | 39078 ft | 479 kts | 133° |
| 2026-05-06 04:31 | 25.32288 | -106.23091 | 39073 ft | 479 kts | 133° |
| 2026-05-06 04:32 | 25.28293 | -106.17229 | 39068 ft | 480 kts | 133° |
| 2026-05-06 04:32 | 25.24285 | -106.11324 | 39077 ft | 480 kts | 133° |
| 2026-05-06 04:33 | 25.20267 | -106.05427 | 39067 ft | 480 kts | 133° |
| 2026-05-06 04:33 | 25.16269 | -105.99560 | 39063 ft | 480 kts | 133° |
| 2026-05-06 04:34 | 25.12244 | -105.93668 | 39063 ft | 480 kts | 133° |
| 2026-05-06 04:34 | 25.08219 | -105.87791 | 39073 ft | 480 kts | 133° |
| 2026-05-06 04:35 | 25.04221 | -105.81945 | 39069 ft | 480 kts | 133° |
| 2026-05-06 04:35 | 25.00206 | -105.76059 | 39061 ft | 480 kts | 133° |
| 2026-05-06 04:36 | 24.96185 | -105.70183 | 39060 ft | 480 kts | 133° |
| 2026-05-06 04:36 | 24.92152 | -105.64309 | 39061 ft | 480 kts | 133° |
| 2026-05-06 04:37 | 24.88111 | -105.58429 | 39055 ft | 480 kts | 133° |
| 2026-05-06 04:37 | 24.84097 | -105.52597 | 39054 ft | 480 kts | 133° |
| 2026-05-06 04:38 | 24.80055 | -105.46739 | 39048 ft | 479 kts | 132° |
| 2026-05-06 04:38 | 24.76020 | -105.40890 | 39049 ft | 480 kts | 133° |
| 2026-05-06 04:39 | 24.72001 | -105.35073 | 39043 ft | 479 kts | 132° |
| 2026-05-06 04:39 | 24.67961 | -105.29228 | 39041 ft | 479 kts | 132° |
| 2026-05-06 04:40 | 24.63919 | -105.23389 | 39041 ft | 479 kts | 132° |
| 2026-05-06 04:40 | 24.59875 | -105.17552 | 39035 ft | 479 kts | 132° |
| 2026-05-06 04:41 | 24.55857 | -105.11769 | 39032 ft | 479 kts | 132° |
| 2026-05-06 04:41 | 24.51813 | -105.05952 | 39027 ft | 478 kts | 132° |
| 2026-05-06 04:42 | 24.47775 | -105.00149 | 39019 ft | 478 kts | 132° |
| 2026-05-06 04:42 | 24.43732 | -104.94365 | 39010 ft | 477 kts | 132° |
| 2026-05-06 04:43 | 24.39736 | -104.88633 | 38986 ft | 472 kts | 134° |
| 2026-05-06 04:43 | 24.35748 | -104.82921 | 38990 ft | 470 kts | 134° |
| 2026-05-06 04:44 | 24.31776 | -104.77259 | 38979 ft | 470 kts | 134° |
| 2026-05-06 04:44 | 24.27781 | -104.71564 | 38924 ft | 471 kts | 131° |
| 2026-05-06 04:45 | 24.23772 | -104.65843 | 38934 ft | 473 kts | 131° |
| 2026-05-06 04:45 | 24.19754 | -104.60113 | 38937 ft | 474 kts | 131° |
| 2026-05-06 04:46 | 24.15757 | -104.54422 | 38948 ft | 474 kts | 131° |
| 2026-05-06 04:46 | 24.11238 | -104.49263 | 38954 ft | 466 kts | 144° |
| 2026-05-06 04:47 | 24.06272 | -104.44681 | 38956 ft | 467 kts | 144° |
| 2026-05-06 04:47 | 24.01347 | -104.40109 | 38962 ft | 467 kts | 143° |
| 2026-05-06 04:48 | 23.96389 | -104.35512 | 38967 ft | 467 kts | 143° |
| 2026-05-06 04:48 | 23.91423 | -104.30924 | 38971 ft | 467 kts | 143° |
| 2026-05-06 04:49 | 23.86482 | -104.26364 | 38979 ft | 467 kts | 143° |
| 2026-05-06 04:49 | 23.81525 | -104.21787 | 38988 ft | 467 kts | 143° |
| 2026-05-06 04:50 | 23.76552 | -104.17211 | 38995 ft | 467 kts | 143° |
| 2026-05-06 04:50 | 23.71572 | -104.12638 | 39000 ft | 467 kts | 143° |
| 2026-05-06 04:51 | 23.66607 | -104.08072 | 39012 ft | 467 kts | 143° |
| 2026-05-06 04:51 | 23.61668 | -104.03531 | 39027 ft | 467 kts | 143° |
| 2026-05-06 04:52 | 23.56696 | -103.98972 | 39034 ft | 466 kts | 143° |
| 2026-05-06 04:52 | 23.51724 | -103.94423 | 39038 ft | 466 kts | 143° |
| 2026-05-06 04:53 | 23.46756 | -103.89876 | 39049 ft | 467 kts | 143° |
| 2026-05-06 04:53 | 23.41784 | -103.85327 | 39052 ft | 467 kts | 143° |
| 2026-05-06 04:54 | 23.36845 | -103.80811 | 39057 ft | 466 kts | 143° |
| 2026-05-06 04:54 | 23.31875 | -103.76268 | 39058 ft | 466 kts | 142° |
| 2026-05-06 04:55 | 23.26888 | -103.71720 | 39061 ft | 466 kts | 143° |
| 2026-05-06 04:55 | 23.21912 | -103.67186 | 39071 ft | 466 kts | 142° |
| 2026-05-06 04:56 | 23.16935 | -103.62655 | 39076 ft | 466 kts | 142° |
| 2026-05-06 04:56 | 23.11958 | -103.58127 | 39074 ft | 466 kts | 142° |
| 2026-05-06 04:57 | 23.07001 | -103.53630 | 39090 ft | 466 kts | 142° |
| 2026-05-06 04:57 | 23.02012 | -103.49109 | 39082 ft | 466 kts | 142° |
| 2026-05-06 04:58 | 22.97034 | -103.44603 | 39086 ft | 466 kts | 142° |
| 2026-05-06 04:58 | 22.92089 | -103.40124 | 39081 ft | 466 kts | 142° |
| 2026-05-06 04:59 | 22.87116 | -103.35616 | 39086 ft | 466 kts | 142° |
| 2026-05-06 04:59 | 22.82147 | -103.31114 | 39075 ft | 466 kts | 142° |
| 2026-05-06 05:00 | 22.77163 | -103.26621 | 39067 ft | 466 kts | 142° |
| 2026-05-06 05:00 | 22.72179 | -103.22138 | 39055 ft | 465 kts | 142° |
| 2026-05-06 05:01 | 22.67203 | -103.17650 | 39046 ft | 466 kts | 142° |
| 2026-05-06 05:01 | 22.62213 | -103.13161 | 39030 ft | 466 kts | 142° |
| 2026-05-06 05:02 | 22.58070 | -103.09432 | 39022 ft | 466 kts | 142° |
| 2026-05-06 05:02 | 22.53081 | -103.04946 | 39015 ft | 466 kts | 142° |
| 2026-05-06 05:03 | 22.48127 | -103.00494 | 39003 ft | 466 kts | 142° |
| 2026-05-06 05:03 | 22.43140 | -102.96015 | 38992 ft | 465 kts | 142° |
| 2026-05-06 05:04 | 22.38154 | -102.91549 | 38980 ft | 465 kts | 142° |
| 2026-05-06 05:04 | 22.33165 | -102.87087 | 38969 ft | 465 kts | 142° |
| 2026-05-06 05:05 | 22.28182 | -102.82632 | 38971 ft | 465 kts | 142° |
| 2026-05-06 05:05 | 22.23227 | -102.78201 | 38953 ft | 464 kts | 142° |
| 2026-05-06 05:06 | 22.18243 | -102.73751 | 38945 ft | 464 kts | 142° |
| 2026-05-06 05:06 | 22.13265 | -102.69308 | 38930 ft | 463 kts | 142° |
| 2026-05-06 05:07 | 22.08335 | -102.64902 | 38918 ft | 463 kts | 142° |
| 2026-05-06 05:07 | 22.03369 | -102.60477 | 38897 ft | 462 kts | 142° |
| 2026-05-06 05:08 | 21.98396 | -102.56060 | 38890 ft | 462 kts | 142° |
| 2026-05-06 05:08 | 21.93422 | -102.51653 | 38971 ft | 462 kts | 142° |
| 2026-05-06 05:09 | 21.88459 | -102.47251 | 39060 ft | 462 kts | 142° |
| 2026-05-06 05:09 | 21.83497 | -102.42844 | 39158 ft | 462 kts | 142° |
| 2026-05-06 05:10 | 21.78565 | -102.38469 | 39258 ft | 462 kts | 142° |
| 2026-05-06 05:10 | 21.73738 | -102.33910 | 39275 ft | 463 kts | 133° |
| 2026-05-06 05:10 | 21.71784 | -102.31143 | 39273 ft | 464 kts | 122° |
| 2026-05-06 05:11 | 21.70297 | -102.28058 | 39277 ft | 465 kts | 112° |
| 2026-05-06 05:11 | 21.68462 | -102.21431 | 39254 ft | 465 kts | 106° |
| 2026-05-06 05:12 | 21.66732 | -102.14719 | 39144 ft | 465 kts | 106° |
| 2026-05-06 05:12 | 21.64980 | -102.08015 | 39034 ft | 466 kts | 106° |
| 2026-05-06 05:13 | 21.63232 | -102.01312 | 38932 ft | 466 kts | 106° |
| 2026-05-06 05:13 | 21.61492 | -101.94602 | 38831 ft | 466 kts | 106° |
| 2026-05-06 05:14 | 21.59756 | -101.87926 | 38835 ft | 466 kts | 106° |
| 2026-05-06 05:14 | 21.58003 | -101.81205 | 38836 ft | 466 kts | 106° |
| 2026-05-06 05:15 | 21.55956 | -101.74602 | 38841 ft | 465 kts | 117° |
| 2026-05-06 05:15 | 21.52569 | -101.68707 | 38843 ft | 464 kts | 124° |
| 2026-05-06 05:16 | 21.49001 | -101.62918 | 38843 ft | 464 kts | 124° |
| 2026-05-06 05:16 | 21.45458 | -101.57169 | 38845 ft | 464 kts | 124° |
| 2026-05-06 05:17 | 21.41892 | -101.51379 | 38843 ft | 464 kts | 124° |
| 2026-05-06 05:17 | 21.38327 | -101.45593 | 38845 ft | 464 kts | 124° |
| 2026-05-06 05:18 | 21.35420 | -101.40893 | 38843 ft | 464 kts | 124° |
| 2026-05-06 05:18 | 21.32003 | -101.35376 | 38856 ft | 464 kts | 124° |
| 2026-05-06 05:19 | 21.28446 | -101.29632 | 38868 ft | 464 kts | 124° |
| 2026-05-06 05:19 | 21.24877 | -101.23863 | 38863 ft | 464 kts | 124° |
| 2026-05-06 05:20 | 21.21291 | -101.18085 | 38836 ft | 464 kts | 124° |
| 2026-05-06 05:20 | 21.17716 | -101.12323 | 38833 ft | 464 kts | 124° |
| 2026-05-06 05:21 | 21.14169 | -101.06602 | 38830 ft | 464 kts | 124° |
| 2026-05-06 05:21 | 21.10583 | -101.00846 | 38826 ft | 464 kts | 124° |
| 2026-05-06 05:22 | 21.06989 | -100.95104 | 38823 ft | 464 kts | 125° |
| 2026-05-06 05:22 | 21.03181 | -100.89526 | 38833 ft | 463 kts | 128° |
| 2026-05-06 05:23 | 20.99215 | -100.84134 | 38829 ft | 463 kts | 129° |
| 2026-05-06 05:23 | 20.93264 | -100.75974 | 38830 ft | 463 kts | 128° |
| 2026-05-06 05:24 | 20.89360 | -100.70500 | 38829 ft | 462 kts | 128° |
| 2026-05-06 05:24 | 20.85487 | -100.65063 | 38829 ft | 462 kts | 128° |
| 2026-05-06 05:25 | 20.81571 | -100.59607 | 38829 ft | 462 kts | 128° |
| 2026-05-06 05:25 | 20.77646 | -100.54153 | 38835 ft | 462 kts | 128° |
| 2026-05-06 05:26 | 20.73723 | -100.48704 | 38944 ft | 462 kts | 128° |
| 2026-05-06 05:26 | 20.69829 | -100.43298 | 39071 ft | 461 kts | 128° |
| 2026-05-06 05:27 | 20.65914 | -100.37857 | 39193 ft | 461 kts | 128° |
| 2026-05-06 05:27 | 20.61989 | -100.32417 | 39298 ft | 461 kts | 128° |
| 2026-05-06 05:28 | 20.58090 | -100.27022 | 39375 ft | 461 kts | 128° |
| 2026-05-06 05:28 | 20.54171 | -100.21604 | 39373 ft | 461 kts | 128° |
| 2026-05-06 05:29 | 20.50246 | -100.16188 | 39323 ft | 462 kts | 128° |
| 2026-05-06 05:29 | 20.46321 | -100.10765 | 39164 ft | 462 kts | 128° |
| 2026-05-06 05:30 | 20.44343 | -100.08035 | 38276 ft | 469 kts | 128° |
| 2026-05-06 05:30 | 20.42348 | -100.05282 | 37010 ft | 471 kts | 128° |
| 2026-05-06 05:30 | 20.40357 | -100.02534 | 35682 ft | 475 kts | 129° |
| 2026-05-06 05:30 | 20.38356 | -99.99772 | 34365 ft | 479 kts | 129° |
| 2026-05-06 05:31 | 20.36318 | -99.96957 | 32905 ft | 481 kts | 129° |
| 2026-05-06 05:31 | 20.34264 | -99.94125 | 31349 ft | 484 kts | 129° |
| 2026-05-06 05:31 | 20.32198 | -99.91279 | 29788 ft | 488 kts | 129° |
| 2026-05-06 05:31 | 20.30109 | -99.88411 | 27967 ft | 491 kts | 129° |
| 2026-05-06 05:32 | 20.28027 | -99.85557 | 26600 ft | 484 kts | 129° |
| 2026-05-06 05:32 | 20.25983 | -99.82755 | 25356 ft | 474 kts | 128° |
| 2026-05-06 05:32 | 20.23953 | -99.80036 | 24218 ft | 463 kts | 133° |
| 2026-05-06 05:32 | 20.21626 | -99.77780 | 23505 ft | 443 kts | 143° |
| 2026-05-06 05:33 | 20.19033 | -99.76076 | 22279 ft | 435 kts | 155° |
| 2026-05-06 05:33 | 20.16233 | -99.75030 | 21833 ft | 422 kts | 166° |
| 2026-05-06 05:33 | 20.13387 | -99.74417 | 21269 ft | 422 kts | 168° |
| 2026-05-06 05:33 | 20.10515 | -99.73835 | 20617 ft | 418 kts | 168° |
| 2026-05-06 05:34 | 20.07660 | -99.73262 | 19990 ft | 418 kts | 168° |
| 2026-05-06 05:34 | 20.04814 | -99.72696 | 19354 ft | 415 kts | 168° |
| 2026-05-06 05:34 | 20.01981 | -99.72132 | 18722 ft | 413 kts | 168° |
| 2026-05-06 05:34 | 19.99160 | -99.71570 | 17971 ft | 413 kts | 168° |
| 2026-05-06 05:35 | 19.96317 | -99.71003 | 17079 ft | 416 kts | 168° |
| 2026-05-06 05:35 | 19.93509 | -99.70445 | 16773 ft | 404 kts | 168° |
| 2026-05-06 05:35 | 19.90834 | -99.69885 | 16586 ft | 389 kts | 164° |
| 2026-05-06 05:35 | 19.88336 | -99.68781 | 16344 ft | 391 kts | 148° |
| 2026-05-06 05:36 | 19.86245 | -99.66947 | 16108 ft | 390 kts | 130° |
| 2026-05-06 05:36 | 19.84591 | -99.64658 | 15868 ft | 390 kts | 126° |
| 2026-05-06 05:36 | 19.82982 | -99.62341 | 15634 ft | 390 kts | 126° |
| 2026-05-06 05:36 | 19.81378 | -99.60026 | 15397 ft | 389 kts | 126° |
| 2026-05-06 05:37 | 19.79774 | -99.57714 | 15164 ft | 388 kts | 126° |
| 2026-05-06 05:37 | 19.78173 | -99.55407 | 14934 ft | 387 kts | 126° |
| 2026-05-06 05:37 | 19.76579 | -99.53106 | 14707 ft | 386 kts | 126° |
| 2026-05-06 05:37 | 19.74986 | -99.50809 | 14469 ft | 386 kts | 126° |
| 2026-05-06 05:38 | 19.73388 | -99.48509 | 14235 ft | 384 kts | 126° |
| 2026-05-06 05:38 | 19.71822 | -99.46258 | 14029 ft | 383 kts | 126° |
| 2026-05-06 05:38 | 19.70241 | -99.43992 | 13806 ft | 378 kts | 126° |
| 2026-05-06 05:38 | 19.68709 | -99.41799 | 13649 ft | 362 kts | 126° |
| 2026-05-06 05:39 | 19.67250 | -99.39709 | 13674 ft | 343 kts | 126° |
| 2026-05-06 05:39 | 19.65804 | -99.37756 | 13494 ft | 333 kts | 134° |
| 2026-05-06 05:39 | 19.63964 | -99.36341 | 13372 ft | 321 kts | 153° |
| 2026-05-06 05:39 | 19.62468 | -99.35581 | 13339 ft | 303 kts | 154° |
| 2026-05-06 05:40 | 19.60615 | -99.34647 | 13299 ft | 289 kts | 153° |
| 2026-05-06 05:40 | 19.58837 | -99.33738 | 13260 ft | 278 kts | 153° |
| 2026-05-06 05:40 | 19.57154 | -99.32875 | 13223 ft | 267 kts | 153° |
| 2026-05-06 05:40 | 19.55514 | -99.32036 | 13186 ft | 256 kts | 153° |
| 2026-05-06 05:41 | 19.53957 | -99.31240 | 13187 ft | 239 kts | 153° |
| 2026-05-06 05:41 | 19.52456 | -99.30473 | 13145 ft | 240 kts | 153° |
| 2026-05-06 05:41 | 19.50990 | -99.29727 | 12963 ft | 228 kts | 153° |
| 2026-05-06 05:41 | 19.49576 | -99.29011 | 12697 ft | 222 kts | 153° |
| 2026-05-06 05:42 | 19.48193 | -99.28310 | 12413 ft | 218 kts | 153° |
| 2026-05-06 05:42 | 19.46841 | -99.27623 | 12141 ft | 214 kts | 153° |
| 2026-05-06 05:42 | 19.45508 | -99.26943 | 11866 ft | 210 kts | 153° |
| 2026-05-06 05:42 | 19.44211 | -99.26282 | 11594 ft | 207 kts | 153° |
| 2026-05-06 05:43 | 19.42922 | -99.25619 | 11324 ft | 205 kts | 151° |
| 2026-05-06 05:43 | 19.41711 | -99.24863 | 11033 ft | 198 kts | 148° |
| 2026-05-06 05:43 | 19.40549 | -99.24121 | 10757 ft | 190 kts | 148° |
| 2026-05-06 05:43 | 19.39446 | -99.23418 | 10471 ft | 180 kts | 149° |
| 2026-05-06 05:44 | 19.38420 | -99.22708 | 10218 ft | 173 kts | 139° |
| 2026-05-06 05:44 | 19.37660 | -99.21781 | 9965 ft | 164 kts | 122° |
| 2026-05-06 05:44 | 19.37218 | -99.20700 | 9715 ft | 161 kts | 105° |
| 2026-05-06 05:44 | 19.37096 | -99.19529 | 9551 ft | 160 kts | 88° |
| 2026-05-06 05:45 | 19.37313 | -99.18377 | 9457 ft | 160 kts | 64° |
| 2026-05-06 05:45 | 19.37832 | -99.17335 | 9390 ft | 160 kts | 60° |
| 2026-05-06 05:45 | 19.38378 | -99.16317 | 9287 ft | 158 kts | 58° |
| 2026-05-06 05:45 | 19.38932 | -99.15313 | 9171 ft | 158 kts | 57° |
| 2026-05-06 05:46 | 19.39488 | -99.14316 | 9035 ft | 156 kts | 57° |
| 2026-05-06 05:46 | 19.40038 | -99.13333 | 8826 ft | 155 kts | 57° |
| 2026-05-06 05:46 | 19.40582 | -99.12363 | 8557 ft | 155 kts | 57° |
| 2026-05-06 05:46 | 19.41130 | -99.11387 | 8221 ft | 154 kts | 57° |
| 2026-05-06 05:47 | 19.41682 | -99.10404 | 7904 ft | 157 kts | 56° |
| 2026-05-06 05:47 | 19.42232 | -99.09401 | 7627 ft | 158 kts | 57° |
| 2026-05-06 05:47 | 19.42799 | -99.08403 | 7378 ft | 158 kts | 57° |
| 2026-05-06 05:47 | 19.43343 | -99.07429 | 7307 ft | 141 kts | 56° |
| 2026-05-06 05:48 | 19.43769 | -99.06683 | 7303 ft | 94 kts | 59° |
| 2026-05-06 05:48 | 19.43983 | -99.06295 | 7301 ft | 29 kts | 59° |
| 2026-05-06 05:48 | 19.44087 | -99.06115 | 7301 ft | 29 kts | 60° |
| 2026-05-06 05:48 | 19.44173 | -99.05966 | 7300 ft | 23 kts | 44° |
| 2026-05-06 05:49 | 19.44296 | -99.05966 | 7303 ft | 17 kts | 306° |
| 2026-05-06 05:49 | 19.44331 | -99.06052 | 7303 ft | 10 kts | 291° |
| 2026-05-06 05:49 | 19.44361 | -99.06127 | 7302 ft | 12 kts | 294° |
| 2026-05-06 05:49 | 19.44399 | -99.06216 | 7303 ft | 14 kts | 294° |
| 2026-05-06 05:50 | 19.44417 | -99.06316 | 7303 ft | 15 kts | 261° |
| 2026-05-06 05:50 | 19.44368 | -99.06418 | 7303 ft | 16 kts | 239° |
| 2026-05-06 05:50 | 19.44306 | -99.06526 | 7303 ft | 18 kts | 239° |
| 2026-05-06 05:50 | 19.44240 | -99.06644 | 7303 ft | 19 kts | 239° |
| 2026-05-06 05:51 | 19.44170 | -99.06770 | 7303 ft | 13 kts | 239° |
| 2026-05-06 05:51 | 19.44142 | -99.06820 | 7303 ft | 9 kts | 239° |
| 2026-05-06 05:51 | 19.44109 | -99.06880 | 7303 ft | 11 kts | 239° |